createdAt,value
2024-03-10T00:01:31.915Z,21.88
2024-03-10T00:06:54.793Z,27.40
2024-03-10T00:12:19.731Z,21.73
2024-03-10T00:17:42.871Z,23.13
2024-03-10T00:23:07.010Z,21.50
2024-03-10T00:28:30.788Z,27.85
2024-03-10T00:33:53.781Z,22.73
2024-03-10T00:39:16.110Z,22.83
2024-03-10T00:44:39.982Z,16.00
2024-03-10T00:50:03.758Z,14.75
2024-03-10T00:55:26.067Z,14.93
2024-03-10T01:00:49.946Z,12.10
2024-03-10T01:06:13.579Z,15.98
2024-03-10T01:11:35.832Z,24.90
2024-03-10T01:17:05.963Z,16.42
2024-03-10T01:22:29.017Z,17.30
2024-03-10T01:27:51.917Z,17.80
2024-03-10T01:33:16.399Z,14.93
2024-03-10T01:38:39.003Z,14.98
2024-03-10T01:44:02.320Z,13.48
2024-03-10T01:49:27.360Z,16.92
2024-03-10T01:54:50.705Z,22.95
2024-03-10T02:00:14.312Z,18.58
2024-03-10T02:05:38.161Z,23.50
2024-03-10T02:11:01.080Z,23.30
2024-03-10T02:16:24.680Z,23.23
2024-03-10T02:21:49.077Z,33.78
2024-03-10T02:27:18.125Z,31.75
2024-03-10T02:32:57.597Z,23.02
2024-03-10T02:38:37.718Z,28.27
2024-03-10T02:44:19.187Z,21.88
2024-03-10T02:49:42.385Z,19.33
2024-03-10T02:55:05.192Z,19.33
2024-03-10T03:00:29.573Z,15.48
2024-03-10T03:05:52.550Z,17.20
2024-03-10T03:11:15.270Z,19.63
2024-03-10T03:16:38.933Z,17.23
2024-03-10T03:22:02.336Z,30.67
2024-03-10T03:27:26.233Z,29.20
2024-03-10T03:32:50.302Z,21.40
2024-03-10T03:38:13.343Z,15.05
2024-03-10T03:43:36.127Z,17.23
2024-03-10T03:49:00.409Z,19.30
2024-03-10T03:54:23.313Z,24.75
2024-03-10T03:59:46.347Z,25.33
2024-03-10T04:05:10.974Z,38.20
2024-03-10T04:10:35.844Z,33.63
2024-03-10T04:15:58.689Z,32.13
2024-03-10T04:21:22.952Z,24.42
2024-03-10T04:26:46.507Z,31.55
2024-03-10T04:32:09.517Z,31.45
2024-03-10T04:37:33.522Z,58.20
2024-03-10T04:42:56.600Z,47.38
2024-03-10T04:48:18.982Z,71.20
2024-03-10T04:53:44.905Z,66.30
2024-03-10T04:59:07.736Z,60.67
2024-03-10T05:04:30.124Z,64.88
2024-03-10T05:09:55.152Z,43.50
2024-03-10T05:15:17.364Z,61.60
2024-03-10T05:20:42.455Z,53.33
2024-03-10T05:26:06.555Z,44.03
2024-03-10T05:31:31.741Z,67.18
2024-03-10T05:36:54.748Z,77.40
2024-03-10T05:42:18.322Z,58.72
2024-03-10T05:47:40.740Z,52.92
2024-03-10T05:53:03.000Z,70.10
2024-03-10T05:58:26.782Z,39.78
2024-03-10T06:03:49.879Z,48.10
2024-03-10T06:09:13.774Z,49.00
2024-03-10T06:14:39.202Z,34.13
2024-03-10T06:20:19.093Z,30.73
2024-03-10T06:25:41.737Z,25.80
2024-03-10T06:31:05.940Z,24.40
2024-03-10T06:36:28.617Z,36.72
2024-03-10T06:41:51.318Z,27.58
2024-03-10T06:47:15.460Z,30.85
2024-03-10T06:52:38.303Z,40.38
2024-03-10T06:58:04.943Z,35.40
2024-03-10T07:03:29.020Z,30.65
2024-03-10T07:08:51.816Z,32.22
2024-03-10T07:14:21.098Z,27.35
2024-03-10T07:19:46.614Z,30.33
2024-03-10T07:25:11.171Z,28.55
2024-03-10T07:30:35.624Z,29.58
2024-03-10T07:35:59.112Z,25.42
2024-03-10T07:41:21.638Z,28.08
2024-03-10T07:46:44.069Z,25.98
2024-03-10T07:52:08.430Z,23.02
2024-03-10T07:57:31.555Z,24.60
2024-03-10T08:02:58.200Z,19.25
2024-03-10T08:08:22.143Z,13.15
2024-03-10T08:13:46.193Z,18.90
2024-03-10T08:19:08.922Z,20.02
2024-03-10T08:24:32.801Z,10.38
2024-03-10T08:29:55.491Z,12.77
2024-03-10T08:35:19.196Z,22.00
2024-03-10T08:40:44.757Z,13.98
2024-03-10T08:46:08.127Z,9.00
2024-03-10T08:51:36.430Z,11.23
2024-03-10T08:57:00.281Z,18.45
2024-03-10T09:02:24.756Z,12.73
2024-03-10T09:07:48.610Z,8.00
2024-03-10T09:13:13.402Z,12.13
2024-03-10T09:18:36.151Z,9.52
2024-03-10T09:23:59.168Z,12.32
2024-03-10T09:29:23.273Z,16.33
2024-03-10T09:34:47.617Z,10.30
2024-03-10T09:40:12.055Z,12.90
2024-03-10T09:45:39.352Z,5.97
2024-03-10T09:51:02.302Z,13.90
2024-03-10T09:56:25.892Z,26.50
2024-03-10T10:01:52.065Z,19.42
2024-03-10T10:07:15.168Z,12.13
2024-03-10T10:12:37.960Z,9.35
2024-03-10T10:18:03.560Z,7.45
2024-03-10T10:23:26.573Z,8.52
2024-03-10T10:29:04.039Z,12.85
2024-03-10T10:34:27.521Z,11.00
2024-03-10T10:39:55.363Z,16.38
2024-03-10T10:45:18.930Z,33.15
2024-03-10T10:50:44.978Z,11.02
2024-03-10T10:56:08.838Z,12.73
2024-03-10T11:01:31.636Z,3.10
2024-03-10T11:06:57.009Z,11.45
2024-03-10T11:12:21.812Z,8.35
2024-03-10T11:17:47.305Z,8.38
2024-03-10T11:23:12.492Z,4.40
2024-03-10T11:28:47.538Z,8.65
2024-03-10T11:34:11.448Z,10.90
2024-03-10T11:39:35.893Z,17.30
2024-03-10T11:44:58.725Z,12.73
2024-03-10T11:50:21.620Z,9.15
2024-03-10T11:55:46.702Z,10.52
2024-03-10T12:01:11.827Z,20.13
2024-03-10T12:06:35.102Z,11.45
2024-03-10T12:11:59.218Z,17.38
2024-03-10T12:17:22.114Z,14.13
2024-03-10T12:22:45.000Z,15.07
2024-03-10T12:28:12.438Z,8.02
2024-03-10T12:33:34.742Z,12.40
2024-03-10T12:38:58.174Z,14.65
2024-03-10T12:44:22.227Z,26.42
2024-03-10T12:49:45.066Z,18.13
2024-03-10T12:55:09.513Z,24.48
2024-03-10T13:00:36.673Z,7.95
2024-03-10T13:05:59.362Z,29.25
2024-03-10T13:11:31.057Z,9.38
2024-03-10T13:16:58.090Z,22.63
2024-03-10T13:22:31.045Z,18.63
2024-03-10T13:27:53.645Z,16.85
2024-03-10T13:33:17.452Z,16.65
2024-03-10T13:38:40.115Z,10.35
2024-03-10T13:44:03.647Z,13.48
2024-03-10T13:49:28.232Z,9.07
2024-03-10T13:54:52.328Z,12.82
2024-03-10T14:00:20.348Z,16.33
2024-03-10T14:05:44.715Z,18.30
2024-03-10T14:11:07.802Z,28.10
2024-03-10T14:16:30.785Z,18.05
2024-03-10T14:21:54.740Z,12.50
2024-03-10T14:27:17.225Z,17.52
2024-03-10T14:32:40.936Z,31.35
2024-03-10T14:38:05.742Z,14.23
2024-03-10T14:43:28.380Z,24.88
2024-03-10T14:48:50.586Z,25.05
2024-03-10T14:54:14.450Z,22.35
2024-03-10T14:59:39.151Z,14.90
2024-03-10T15:05:01.717Z,25.13
2024-03-10T15:10:26.766Z,20.95
2024-03-10T15:15:49.609Z,20.27
2024-03-10T15:21:12.444Z,14.82
2024-03-10T15:26:36.721Z,24.45
2024-03-10T15:31:59.401Z,24.35
2024-03-10T15:37:22.730Z,16.40
2024-03-10T15:42:47.482Z,17.83
2024-03-10T15:48:11.686Z,14.88
2024-03-10T15:53:36.174Z,30.35
2024-03-10T15:59:06.610Z,21.73
2024-03-10T16:04:31.007Z,22.60
2024-03-10T16:09:54.137Z,26.00
2024-03-10T16:15:21.786Z,26.90
2024-03-10T16:20:46.409Z,55.13
2024-03-10T16:26:10.404Z,35.70
2024-03-10T16:31:36.603Z,31.70
2024-03-10T16:36:58.220Z,39.67
2024-03-10T16:42:21.173Z,49.58
2024-03-10T16:47:46.854Z,43.88
2024-03-10T16:53:10.469Z,38.70
2024-03-10T16:58:35.079Z,40.13
2024-03-10T17:03:59.538Z,55.20
2024-03-10T17:09:22.337Z,51.97
2024-03-10T17:14:46.401Z,60.25
2024-03-10T17:20:13.374Z,74.55
2024-03-10T17:25:37.077Z,85.72
2024-03-10T17:31:00.220Z,67.65
2024-03-10T17:36:25.940Z,25.33
2024-03-10T17:41:48.843Z,38.92
2024-03-10T17:47:12.387Z,35.58
2024-03-10T17:52:36.834Z,48.40
2024-03-10T17:57:59.151Z,34.00
2024-03-10T18:03:21.644Z,49.47
2024-03-10T18:08:46.127Z,32.22
2024-03-10T18:14:10.499Z,29.27
2024-03-10T18:19:33.227Z,47.78
2024-03-10T18:24:57.334Z,30.25
2024-03-10T18:30:20.033Z,31.13
2024-03-10T18:35:42.371Z,15.48
2024-03-10T18:41:06.424Z,22.80
2024-03-10T18:46:29.294Z,10.18
2024-03-10T18:51:51.818Z,6.20
2024-03-10T18:57:16.850Z,10.80
2024-03-10T19:02:39.668Z,10.27
2024-03-10T19:08:02.532Z,7.82
2024-03-10T19:13:27.658Z,23.75
2024-03-10T19:18:51.311Z,14.30
2024-03-10T19:24:13.612Z,21.10
2024-03-10T19:29:37.630Z,30.80
2024-03-10T19:35:00.297Z,12.52
2024-03-10T19:40:23.796Z,11.93
2024-03-10T19:45:47.844Z,53.67
2024-03-10T19:51:10.489Z,11.18
2024-03-10T19:56:33.138Z,31.95
2024-03-10T20:01:56.847Z,24.48
2024-03-10T20:07:19.534Z,10.10
2024-03-10T20:12:42.820Z,21.17
2024-03-10T20:18:08.095Z,12.77
2024-03-10T20:23:31.993Z,14.68
2024-03-10T20:28:58.812Z,17.17
2024-03-10T20:34:24.030Z,17.52
2024-03-10T20:39:48.061Z,16.98
2024-03-10T20:45:11.158Z,26.85
2024-03-10T20:50:35.122Z,18.45
2024-03-10T20:55:59.361Z,9.35
2024-03-10T21:01:23.733Z,13.10
2024-03-10T21:06:49.150Z,10.95
2024-03-10T21:12:12.013Z,5.60
2024-03-10T21:17:34.843Z,13.18
2024-03-10T21:22:59.154Z,16.88
2024-03-10T21:28:21.594Z,21.42
2024-03-10T21:33:45.481Z,20.38
2024-03-10T21:39:12.074Z,5.40
2024-03-10T21:44:35.312Z,8.80
2024-03-10T21:49:58.138Z,6.72
2024-03-10T21:55:21.968Z,7.43
2024-03-10T22:00:44.938Z,6.47
2024-03-10T22:06:07.606Z,10.18
2024-03-10T22:11:31.958Z,8.88
2024-03-10T22:16:55.559Z,8.63
2024-03-10T22:22:18.095Z,9.95
2024-03-10T22:27:43.781Z,8.13
2024-03-10T22:33:06.598Z,10.13
2024-03-10T22:38:31.304Z,8.57
2024-03-10T22:43:56.058Z,7.00
2024-03-10T22:49:18.549Z,7.97
2024-03-10T22:54:41.248Z,8.95
2024-03-10T23:00:24.256Z,7.45
2024-03-10T23:05:49.120Z,8.48
2024-03-10T23:11:12.808Z,10.90
2024-03-10T23:16:36.965Z,9.65
2024-03-10T23:21:59.370Z,8.40
2024-03-10T23:27:22.888Z,6.55
2024-03-10T23:32:47.297Z,5.40
2024-03-10T23:38:10.698Z,5.45
2024-03-10T23:43:33.197Z,5.38
2024-03-10T23:48:57.732Z,4.95
2024-03-10T23:54:20.428Z,6.63
2024-03-10T23:59:43.255Z,11.07
